Terminal Aerodrome Forecast
Issued by NWS Jackson, MS

Home | Current Version | Previous Version | Text Only | Print | Product List | Glossary On
Versions: 1 2 3 4 5 6 7 8 9 10 11 12
000
FTUS44 KJAN 252354
TAFGLH
TAF
KGLH 252354Z 2600/2624 17004KT P6SM SCT100
     FM261000 36007KT P6SM SCT008 BKN012
     FM261600 01012G20KT P6SM SCT025 SCT060=

USA.gov is the U.S. government's official web portal to all federal, state and local government web resources and services.